sensor_id;sensor_type;location;lat;lon;timestamp;temperature;humidity
12233;DHT22;6179;51.748;8.728;2024-02-21T00:00:28;8.50;98.30
12233;DHT22;6179;51.748;8.728;2024-02-21T00:06:29;8.50;98.30
12233;DHT22;6179;51.748;8.728;2024-02-21T00:12:29;8.80;98.30
12233;DHT22;6179;51.748;8.728;2024-02-21T00:18:30;9.00;98.30
12233;DHT22;6179;51.748;8.728;2024-02-21T00:24:31;9.00;98.30
12233;DHT22;6179;51.748;8.728;2024-02-21T00:30:31;8.80;98.30
12233;DHT22;6179;51.748;8.728;2024-02-21T00:36:32;8.80;98.30
12233;DHT22;6179;51.748;8.728;2024-02-21T00:42:33;8.70;98.30
12233;DHT22;6179;51.748;8.728;2024-02-21T00:48:33;8.80;98.30
12233;DHT22;6179;51.748;8.728;2024-02-21T00:54:34;8.60;98.30
12233;DHT22;6179;51.748;8.728;2024-02-21T01:00:35;8.60;98.30
12233;DHT22;6179;51.748;8.728;2024-02-21T01:06:35;8.60;98.30
12233;DHT22;6179;51.748;8.728;2024-02-21T01:12:36;8.50;98.30
12233;DHT22;6179;51.748;8.728;2024-02-21T01:18:37;8.60;98.30
12233;DHT22;6179;51.748;8.728;2024-02-21T01:24:39;8.50;98.30
12233;DHT22;6179;51.748;8.728;2024-02-21T01:30:40;8.40;98.30
12233;DHT22;6179;51.748;8.728;2024-02-21T01:36:41;8.50;98.30
12233;DHT22;6179;51.748;8.728;2024-02-21T01:42:42;8.70;98.30
12233;DHT22;6179;51.748;8.728;2024-02-21T01:48:43;8.70;98.30
12233;DHT22;6179;51.748;8.728;2024-02-21T01:54:46;8.90;98.30
12233;DHT22;6179;51.748;8.728;2024-02-21T02:00:48;9.20;98.30
12233;DHT22;6179;51.748;8.728;2024-02-21T02:06:49;9.30;98.30
12233;DHT22;6179;51.748;8.728;2024-02-21T02:12:50;9.10;98.30
12233;DHT22;6179;51.748;8.728;2024-02-21T02:18:51;9.10;98.30
12233;DHT22;6179;51.748;8.728;2024-02-21T02:24:52;9.20;98.30
12233;DHT22;6179;51.748;8.728;2024-02-21T02:30:52;8.90;98.30
12233;DHT22;6179;51.748;8.728;2024-02-21T02:36:53;8.80;98.30
12233;DHT22;6179;51.748;8.728;2024-02-21T02:42:55;8.90;98.30
12233;DHT22;6179;51.748;8.728;2024-02-21T02:48:55;8.70;98.30
12233;DHT22;6179;51.748;8.728;2024-02-21T02:54:56;8.70;98.30
12233;DHT22;6179;51.748;8.728;2024-02-21T03:00:56;8.70;98.30
12233;DHT22;6179;51.748;8.728;2024-02-21T03:06:57;8.50;98.30
12233;DHT22;6179;51.748;8.728;2024-02-21T03:12:58;8.70;98.30
12233;DHT22;6179;51.748;8.728;2024-02-21T03:18:59;8.70;98.30
12233;DHT22;6179;51.748;8.728;2024-02-21T03:24:59;9.00;98.30
12233;DHT22;6179;51.748;8.728;2024-02-21T03:31:00;8.80;98.30
12233;DHT22;6179;51.748;8.728;2024-02-21T03:37:01;8.70;98.30
12233;DHT22;6179;51.748;8.728;2024-02-21T03:43:02;8.60;98.30
12233;DHT22;6179;51.748;8.728;2024-02-21T03:49:02;8.70;98.30
12233;DHT22;6179;51.748;8.728;2024-02-21T03:55:03;8.60;98.30
12233;DHT22;6179;51.748;8.728;2024-02-21T04:01:04;8.60;98.30
12233;DHT22;6179;51.748;8.728;2024-02-21T04:07:06;8.60;98.30
12233;DHT22;6179;51.748;8.728;2024-02-21T04:13:07;8.70;98.30
12233;DHT22;6179;51.748;8.728;2024-02-21T04:19:08;9.10;98.30
12233;DHT22;6179;51.748;8.728;2024-02-21T04:25:08;8.70;98.30
12233;DHT22;6179;51.748;8.728;2024-02-21T04:31:09;8.70;98.30
12233;DHT22;6179;51.748;8.728;2024-02-21T04:37:09;8.90;98.30
12233;DHT22;6179;51.748;8.728;2024-02-21T04:43:10;9.00;98.30
12233;DHT22;6179;51.748;8.728;2024-02-21T04:49:11;9.00;98.30
12233;DHT22;6179;51.748;8.728;2024-02-21T04:55:11;8.90;98.30
12233;DHT22;6179;51.748;8.728;2024-02-21T05:01:12;9.10;98.30
12233;DHT22;6179;51.748;8.728;2024-02-21T05:07:13;9.30;98.30
12233;DHT22;6179;51.748;8.728;2024-02-21T05:13:13;8.90;98.30
12233;DHT22;6179;51.748;8.728;2024-02-21T05:19:14;8.80;98.30
12233;DHT22;6179;51.748;8.728;2024-02-21T05:25:14;8.80;98.30
12233;DHT22;6179;51.748;8.728;2024-02-21T05:31:16;8.50;98.30
12233;DHT22;6179;51.748;8.728;2024-02-21T05:37:16;9.00;98.30
12233;DHT22;6179;51.748;8.728;2024-02-21T05:43:17;8.70;98.30
12233;DHT22;6179;51.748;8.728;2024-02-21T05:49:18;8.50;98.30
12233;DHT22;6179;51.748;8.728;2024-02-21T05:55:18;8.60;98.30
12233;DHT22;6179;51.748;8.728;2024-02-21T06:01:19;8.50;98.30
12233;DHT22;6179;51.748;8.728;2024-02-21T06:07:21;8.50;98.30
12233;DHT22;6179;51.748;8.728;2024-02-21T06:13:23;8.40;98.30
12233;DHT22;6179;51.748;8.728;2024-02-21T06:19:24;8.40;98.30
12233;DHT22;6179;51.748;8.728;2024-02-21T06:25:24;8.50;98.30
12233;DHT22;6179;51.748;8.728;2024-02-21T06:31:25;8.50;98.30
12233;DHT22;6179;51.748;8.728;2024-02-21T06:37:26;8.40;98.30
12233;DHT22;6179;51.748;8.728;2024-02-21T06:43:26;8.50;98.30
12233;DHT22;6179;51.748;8.728;2024-02-21T06:49:27;8.50;98.30
12233;DHT22;6179;51.748;8.728;2024-02-21T06:55:27;8.70;98.30
12233;DHT22;6179;51.748;8.728;2024-02-21T07:01:28;8.60;98.30
12233;DHT22;6179;51.748;8.728;2024-02-21T07:07:29;8.70;98.30
12233;DHT22;6179;51.748;8.728;2024-02-21T07:13:30;8.70;98.30
12233;DHT22;6179;51.748;8.728;2024-02-21T07:19:30;8.70;98.30
12233;DHT22;6179;51.748;8.728;2024-02-21T07:25:31;8.80;98.30
12233;DHT22;6179;51.748;8.728;2024-02-21T07:31:41;8.80;98.30
12233;DHT22;6179;51.748;8.728;2024-02-21T07:37:42;8.80;98.30
12233;DHT22;6179;51.748;8.728;2024-02-21T07:43:42;8.90;98.30
12233;DHT22;6179;51.748;8.728;2024-02-21T07:49:46;9.10;98.30
12233;DHT22;6179;51.748;8.728;2024-02-21T07:55:46;9.20;98.30
12233;DHT22;6179;51.748;8.728;2024-02-21T08:01:47;9.00;98.30
12233;DHT22;6179;51.748;8.728;2024-02-21T08:07:48;9.00;98.30
12233;DHT22;6179;51.748;8.728;2024-02-21T08:13:49;9.10;98.30
12233;DHT22;6179;51.748;8.728;2024-02-21T08:19:51;9.20;98.30
12233;DHT22;6179;51.748;8.728;2024-02-21T08:25:52;9.20;98.30
12233;DHT22;6179;51.748;8.728;2024-02-21T08:31:54;9.00;98.10
12233;DHT22;6179;51.748;8.728;2024-02-21T08:37:54;9.20;98.30
12233;DHT22;6179;51.748;8.728;2024-02-21T08:43:55;9.40;97.50
12233;DHT22;6179;51.748;8.728;2024-02-21T08:49:55;9.40;96.50
12233;DHT22;6179;51.748;8.728;2024-02-21T08:55:56;9.50;96.80
12233;DHT22;6179;51.748;8.728;2024-02-21T09:01:56;9.50;94.90
12233;DHT22;6179;51.748;8.728;2024-02-21T09:07:57;9.80;93.70
12233;DHT22;6179;51.748;8.728;2024-02-21T09:13:58;9.90;92.60
12233;DHT22;6179;51.748;8.728;2024-02-21T09:19:58;9.70;93.10
12233;DHT22;6179;51.748;8.728;2024-02-21T09:26:03;9.70;92.40
12233;DHT22;6179;51.748;8.728;2024-02-21T09:32:04;9.80;91.50
12233;DHT22;6179;51.748;8.728;2024-02-21T09:38:05;9.80;91.60
12233;DHT22;6179;51.748;8.728;2024-02-21T09:44:07;10.00;93.10
12233;DHT22;6179;51.748;8.728;2024-02-21T09:50:10;10.10;93.00
12233;DHT22;6179;51.748;8.728;2024-02-21T09:56:11;10.10;92.40
12233;DHT22;6179;51.748;8.728;2024-02-21T10:02:12;10.00;92.10
12233;DHT22;6179;51.748;8.728;2024-02-21T10:08:14;10.10;92.80
12233;DHT22;6179;51.748;8.728;2024-02-21T10:14:15;10.20;93.80
12233;DHT22;6179;51.748;8.728;2024-02-21T10:20:16;10.50;92.30
12233;DHT22;6179;51.748;8.728;2024-02-21T10:26:18;10.60;92.20
12233;DHT22;6179;51.748;8.728;2024-02-21T10:32:19;10.50;93.10
12233;DHT22;6179;51.748;8.728;2024-02-21T10:38:20;10.70;90.80
12233;DHT22;6179;51.748;8.728;2024-02-21T10:44:21;10.60;93.20
12233;DHT22;6179;51.748;8.728;2024-02-21T10:50:25;11.00;91.40
12233;DHT22;6179;51.748;8.728;2024-02-21T10:56:30;11.30;89.20
12233;DHT22;6179;51.748;8.728;2024-02-21T11:02:41;11.10;90.90
12233;DHT22;6179;51.748;8.728;2024-02-21T11:08:42;11.20;88.30
12233;DHT22;6179;51.748;8.728;2024-02-21T11:14:43;11.20;88.60
12233;DHT22;6179;51.748;8.728;2024-02-21T11:20:49;11.00;89.90
12233;DHT22;6179;51.748;8.728;2024-02-21T11:26:51;11.20;89.60
12233;DHT22;6179;51.748;8.728;2024-02-21T11:33:00;10.70;90.40
12233;DHT22;6179;51.748;8.728;2024-02-21T11:39:04;10.90;90.90
12233;DHT22;6179;51.748;8.728;2024-02-21T11:45:06;11.00;89.70
12233;DHT22;6179;51.748;8.728;2024-02-21T11:51:09;10.90;91.60
12233;DHT22;6179;51.748;8.728;2024-02-21T11:57:10;11.00;92.50
12233;DHT22;6179;51.748;8.728;2024-02-21T12:03:11;10.60;91.00
12233;DHT22;6179;51.748;8.728;2024-02-21T12:09:18;10.80;91.80
12233;DHT22;6179;51.748;8.728;2024-02-21T12:15:19;10.60;92.40
12233;DHT22;6179;51.748;8.728;2024-02-21T12:21:24;10.60;93.40
12233;DHT22;6179;51.748;8.728;2024-02-21T12:27:25;10.50;93.60
12233;DHT22;6179;51.748;8.728;2024-02-21T12:33:26;10.70;95.00
12233;DHT22;6179;51.748;8.728;2024-02-21T12:39:27;10.50;94.90
12233;DHT22;6179;51.748;8.728;2024-02-21T12:45:29;10.40;95.50
12233;DHT22;6179;51.748;8.728;2024-02-21T12:51:32;10.70;95.80
12233;DHT22;6179;51.748;8.728;2024-02-21T12:57:33;10.80;95.00
12233;DHT22;6179;51.748;8.728;2024-02-21T13:03:34;11.10;94.50
12233;DHT22;6179;51.748;8.728;2024-02-21T13:09:34;11.10;92.70
12233;DHT22;6179;51.748;8.728;2024-02-21T13:15:35;10.80;93.00
12233;DHT22;6179;51.748;8.728;2024-02-21T13:21:37;10.60;93.40
12233;DHT22;6179;51.748;8.728;2024-02-21T13:27:38;10.90;92.50
12233;DHT22;6179;51.748;8.728;2024-02-21T13:33:39;10.90;90.90
12233;DHT22;6179;51.748;8.728;2024-02-21T13:39:40;11.10;90.70
12233;DHT22;6179;51.748;8.728;2024-02-21T13:45:40;11.00;89.80
12233;DHT22;6179;51.748;8.728;2024-02-21T13:51:43;11.00;90.20
12233;DHT22;6179;51.748;8.728;2024-02-21T13:57:45;11.50;89.50
12233;DHT22;6179;51.748;8.728;2024-02-21T14:03:45;11.70;90.00
12233;DHT22;6179;51.748;8.728;2024-02-21T14:09:46;11.70;89.40
12233;DHT22;6179;51.748;8.728;2024-02-21T14:15:47;11.80;87.40
12233;DHT22;6179;51.748;8.728;2024-02-21T14:21:48;11.60;86.50
12233;DHT22;6179;51.748;8.728;2024-02-21T14:27:48;11.70;87.30
12233;DHT22;6179;51.748;8.728;2024-02-21T14:33:49;11.90;86.00
12233;DHT22;6179;51.748;8.728;2024-02-21T14:39:50;12.00;88.00
12233;DHT22;6179;51.748;8.728;2024-02-21T14:45:50;11.90;88.30
12233;DHT22;6179;51.748;8.728;2024-02-21T14:51:51;11.60;88.60
12233;DHT22;6179;51.748;8.728;2024-02-21T14:57:52;11.60;88.50
12233;DHT22;6179;51.748;8.728;2024-02-21T15:03:53;11.80;87.70
12233;DHT22;6179;51.748;8.728;2024-02-21T15:09:54;12.10;86.70
12233;DHT22;6179;51.748;8.728;2024-02-21T15:15:54;11.80;87.60
12233;DHT22;6179;51.748;8.728;2024-02-21T15:21:55;11.50;88.50
12233;DHT22;6179;51.748;8.728;2024-02-21T15:27:56;11.30;88.50
12233;DHT22;6179;51.748;8.728;2024-02-21T15:33:56;11.10;89.60
12233;DHT22;6179;51.748;8.728;2024-02-21T15:39:57;11.20;90.40
12233;DHT22;6179;51.748;8.728;2024-02-21T15:45:59;11.50;89.50
12233;DHT22;6179;51.748;8.728;2024-02-21T15:51:59;11.60;88.80
12233;DHT22;6179;51.748;8.728;2024-02-21T15:58:00;11.20;89.80
12233;DHT22;6179;51.748;8.728;2024-02-21T16:04:01;11.40;89.30
12233;DHT22;6179;51.748;8.728;2024-02-21T16:10:02;11.70;87.70
12233;DHT22;6179;51.748;8.728;2024-02-21T16:16:03;11.40;87.90
12233;DHT22;6179;51.748;8.728;2024-02-21T16:22:04;11.00;88.60
12233;DHT22;6179;51.748;8.728;2024-02-21T16:28:05;10.90;88.80
12233;DHT22;6179;51.748;8.728;2024-02-21T16:34:07;10.80;89.60
12233;DHT22;6179;51.748;8.728;2024-02-21T16:40:08;10.60;89.80
12233;DHT22;6179;51.748;8.728;2024-02-21T16:46:09;10.60;89.50
12233;DHT22;6179;51.748;8.728;2024-02-21T16:52:10;10.90;87.60
12233;DHT22;6179;51.748;8.728;2024-02-21T16:58:10;10.50;89.40
12233;DHT22;6179;51.748;8.728;2024-02-21T17:04:12;10.70;88.90
12233;DHT22;6179;51.748;8.728;2024-02-21T17:10:14;10.80;87.60
12233;DHT22;6179;51.748;8.728;2024-02-21T17:16:15;10.70;88.10
12233;DHT22;6179;51.748;8.728;2024-02-21T17:22:15;10.60;88.60
12233;DHT22;6179;51.748;8.728;2024-02-21T17:28:16;10.40;88.90
12233;DHT22;6179;51.748;8.728;2024-02-21T17:34:17;10.60;88.00
12233;DHT22;6179;51.748;8.728;2024-02-21T17:40:17;10.60;88.80
12233;DHT22;6179;51.748;8.728;2024-02-21T17:46:18;10.70;87.10
12233;DHT22;6179;51.748;8.728;2024-02-21T17:52:19;10.80;85.70
12233;DHT22;6179;51.748;8.728;2024-02-21T17:58:21;10.60;84.90
12233;DHT22;6179;51.748;8.728;2024-02-21T18:04:21;10.80;84.20
12233;DHT22;6179;51.748;8.728;2024-02-21T18:10:23;10.90;82.30
12233;DHT22;6179;51.748;8.728;2024-02-21T18:16:24;10.90;82.50
12233;DHT22;6179;51.748;8.728;2024-02-21T18:22:25;11.00;80.50
12233;DHT22;6179;51.748;8.728;2024-02-21T18:28:27;10.80;80.10
12233;DHT22;6179;51.748;8.728;2024-02-21T18:34:27;10.60;78.90
12233;DHT22;6179;51.748;8.728;2024-02-21T18:40:28;10.80;78.50
12233;DHT22;6179;51.748;8.728;2024-02-21T18:46:29;10.70;79.60
12233;DHT22;6179;51.748;8.728;2024-02-21T18:52:30;11.00;79.70
12233;DHT22;6179;51.748;8.728;2024-02-21T18:58:30;10.90;80.00
12233;DHT22;6179;51.748;8.728;2024-02-21T19:04:31;10.70;81.90
12233;DHT22;6179;51.748;8.728;2024-02-21T19:10:32;10.90;81.40
12233;DHT22;6179;51.748;8.728;2024-02-21T19:16:33;10.60;84.10
12233;DHT22;6179;51.748;8.728;2024-02-21T19:22:33;10.60;86.10
12233;DHT22;6179;51.748;8.728;2024-02-21T19:28:34;10.00;88.50
12233;DHT22;6179;51.748;8.728;2024-02-21T19:34:35;10.20;89.40
12233;DHT22;6179;51.748;8.728;2024-02-21T19:40:36;9.70;92.70
12233;DHT22;6179;51.748;8.728;2024-02-21T19:46:37;9.60;95.90
12233;DHT22;6179;51.748;8.728;2024-02-21T19:52:38;9.50;98.10
12233;DHT22;6179;51.748;8.728;2024-02-21T19:58:40;9.40;98.30
12233;DHT22;6179;51.748;8.728;2024-02-21T20:04:40;8.90;98.30
12233;DHT22;6179;51.748;8.728;2024-02-21T20:10:41;8.90;98.30
12233;DHT22;6179;51.748;8.728;2024-02-21T20:16:41;8.90;98.30
12233;DHT22;6179;51.748;8.728;2024-02-21T20:22:44;8.80;98.30
12233;DHT22;6179;51.748;8.728;2024-02-21T20:28:45;8.90;98.30
12233;DHT22;6179;51.748;8.728;2024-02-21T20:34:45;8.90;98.30
12233;DHT22;6179;51.748;8.728;2024-02-21T20:40:48;8.80;98.30
12233;DHT22;6179;51.748;8.728;2024-02-21T20:46:48;8.90;98.30
12233;DHT22;6179;51.748;8.728;2024-02-21T20:52:49;8.80;98.30
12233;DHT22;6179;51.748;8.728;2024-02-21T20:58:49;8.80;98.30
12233;DHT22;6179;51.748;8.728;2024-02-21T21:04:51;8.70;98.30
12233;DHT22;6179;51.748;8.728;2024-02-21T21:10:52;8.70;98.30
12233;DHT22;6179;51.748;8.728;2024-02-21T21:16:54;8.70;98.30
12233;DHT22;6179;51.748;8.728;2024-02-21T21:22:55;8.80;98.30
12233;DHT22;6179;51.748;8.728;2024-02-21T21:28:56;9.10;98.30
12233;DHT22;6179;51.748;8.728;2024-02-21T21:34:57;8.90;98.30
12233;DHT22;6179;51.748;8.728;2024-02-21T21:40:58;8.80;98.30
12233;DHT22;6179;51.748;8.728;2024-02-21T21:46:59;9.30;98.30
12233;DHT22;6179;51.748;8.728;2024-02-21T21:53:00;9.20;98.30
12233;DHT22;6179;51.748;8.728;2024-02-21T21:59:00;9.30;98.30
12233;DHT22;6179;51.748;8.728;2024-02-21T22:05:04;9.40;98.30
12233;DHT22;6179;51.748;8.728;2024-02-21T22:11:05;9.40;98.30
12233;DHT22;6179;51.748;8.728;2024-02-21T22:17:08;9.40;98.30
12233;DHT22;6179;51.748;8.728;2024-02-21T22:23:09;9.50;98.30
12233;DHT22;6179;51.748;8.728;2024-02-21T22:29:09;9.70;98.30
12233;DHT22;6179;51.748;8.728;2024-02-21T22:35:11;9.60;98.30
12233;DHT22;6179;51.748;8.728;2024-02-21T22:41:12;9.70;98.30
12233;DHT22;6179;51.748;8.728;2024-02-21T22:47:13;9.30;98.30
12233;DHT22;6179;51.748;8.728;2024-02-21T22:53:14;9.00;98.30
12233;DHT22;6179;51.748;8.728;2024-02-21T22:59:15;9.00;98.30
12233;DHT22;6179;51.748;8.728;2024-02-21T23:05:15;8.90;98.30
12233;DHT22;6179;51.748;8.728;2024-02-21T23:11:16;8.80;98.30
12233;DHT22;6179;51.748;8.728;2024-02-21T23:17:17;8.80;98.30
12233;DHT22;6179;51.748;8.728;2024-02-21T23:23:17;8.70;98.30
12233;DHT22;6179;51.748;8.728;2024-02-21T23:29:18;8.70;98.30
12233;DHT22;6179;51.748;8.728;2024-02-21T23:35:19;8.60;98.30
12233;DHT22;6179;51.748;8.728;2024-02-21T23:41:19;8.60;98.30
12233;DHT22;6179;51.748;8.728;2024-02-21T23:47:23;8.70;98.30
12233;DHT22;6179;51.748;8.728;2024-02-21T23:53:24;8.90;98.30
12233;DHT22;6179;51.748;8.728;2024-02-21T23:59:24;8.50;98.30
